Time;durP1;ratioP1;P1;durP2;ratioP2;P2;SDS_P1;SDS_P2;PMS_P1;PMS_P2;Temp;Humidity;BMP_temperature;BMP_pressure;BME280_temperature;BME280_humidity;BME280_pressure;Samples;Min_cycle;Max_cycle;Signal;HPM_P1;HPM_P2
2022/08/24 00:01:10;;;;;;;9.25;8.23;;;12.30;99.90;;;;;;8278562;28;20030;-91
2022/08/24 00:05:11;;;;;;;9.00;8.00;;;12.00;99.90;;;;;;8283067;28;20504;-90
2022/08/24 00:09:12;;;;;;;10.32;8.02;;;11.70;99.90;;;;;;8282102;28;20034;-91
2022/08/24 00:13:13;;;;;;;7.72;6.95;;;11.60;99.90;;;;;;8287538;28;20096;-91
2022/08/24 00:17:14;;;;;;;8.82;7.30;;;11.50;99.90;;;;;;8288373;28;20018;-90
2022/08/24 00:21:14;;;;;;;9.15;8.25;;;11.40;99.90;;;;;;8275918;28;20088;-92
2022/08/24 00:25:16;;;;;;;8.23;7.35;;;11.30;99.90;;;;;;8288886;28;20700;-91
2022/08/24 00:29:17;;;;;;;8.70;7.45;;;11.20;99.90;;;;;;8289174;28;20025;-91
2022/08/24 00:33:18;;;;;;;8.15;7.18;;;11.10;99.90;;;;;;8305413;28;20048;-90
2022/08/24 00:37:19;;;;;;;9.00;7.22;;;11.00;99.90;;;;;;8299491;28;20025;-91
2022/08/24 00:41:21;;;;;;;8.63;7.38;;;10.90;99.90;;;;;;8292471;28;20022;-91
2022/08/24 00:45:23;;;;;;;10.52;8.30;;;10.80;99.90;;;;;;8300265;28;20033;-91
2022/08/24 00:49:26;;;;;;;13.60;7.78;;;11.00;99.90;;;;;;8304296;28;20053;-91
2022/08/24 00:53:32;;;;;;;10.25;7.95;;;11.10;99.90;;;;;;8291266;28;20018;-92
2022/08/24 00:57:37;;;;;;;8.18;7.18;;;11.00;99.90;;;;;;8300044;28;20017;-91
2022/08/24 01:01:39;;;;;;;7.97;6.90;;;10.80;99.90;;;;;;8289491;28;20032;-91
2022/08/24 01:05:40;;;;;;;8.20;7.40;;;10.80;99.90;;;;;;8310486;28;20033;-91
2022/08/24 01:09:40;;;;;;;9.25;8.13;;;10.60;99.90;;;;;;8302964;28;20483;-90
2022/08/24 01:13:45;;;;;;;10.30;8.05;;;10.60;99.90;;;;;;8298225;28;20033;-91
2022/08/24 01:22:28;;;;;;;9.73;8.13;;;10.50;99.90;;;;;;8317737;28;20237;-91
2022/08/24 01:26:46;;;;;;;11.80;8.43;;;10.60;99.90;;;;;;8294637;28;20025;-91
2022/08/24 01:30:47;;;;;;;9.65;8.35;;;10.50;99.90;;;;;;8289521;28;20029;-90
2022/08/24 01:34:48;;;;;;;9.70;8.07;;;10.70;99.90;;;;;;8283013;28;20484;-91
2022/08/24 01:38:49;;;;;;;9.82;8.15;;;10.70;99.90;;;;;;8283868;28;20081;-90
2022/08/24 01:42:51;;;;;;;11.20;8.70;;;10.60;99.90;;;;;;8278819;28;20092;-91
2022/08/24 01:46:55;;;;;;;10.02;8.48;;;10.50;99.90;;;;;;8280153;28;20023;-89
2022/08/24 01:50:55;;;;;;;12.60;8.52;;;10.50;99.90;;;;;;8287534;28;20384;-90
2022/08/24 01:54:56;;;;;;;9.55;8.52;;;10.50;99.90;;;;;;8288447;28;20061;-91
2022/08/24 01:58:57;;;;;;;11.90;9.48;;;10.40;99.90;;;;;;8297650;28;20022;-92
2022/08/24 02:02:57;;;;;;;8.73;7.65;;;10.40;99.90;;;;;;8293639;28;20041;-91
2022/08/24 02:06:58;;;;;;;8.98;7.43;;;10.20;99.90;;;;;;8286308;28;20519;-91
2022/08/24 02:10:58;;;;;;;10.82;8.05;;;10.10;99.90;;;;;;8286233;28;20437;-91
2022/08/24 02:15:01;;;;;;;9.55;7.75;;;10.00;99.90;;;;;;8277746;28;20388;-91
2022/08/24 02:19:01;;;;;;;7.45;6.75;;;9.90;99.90;;;;;;8293489;28;20029;-91
2022/08/24 02:23:03;;;;;;;8.88;7.97;;;10.00;99.90;;;;;;8291257;28;20034;-91
2022/08/24 02:27:04;;;;;;;8.88;7.88;;;9.80;99.90;;;;;;8284737;28;20026;-90
2022/08/24 02:31:06;;;;;;;10.68;8.57;;;9.70;99.90;;;;;;8292055;28;20070;-89
2022/08/24 02:35:08;;;;;;;10.10;8.23;;;9.60;99.90;;;;;;8284791;28;20069;-90
2022/08/24 02:39:09;;;;;;;12.48;8.57;;;9.60;99.90;;;;;;8291566;28;20121;-91
2022/08/24 02:43:09;;;;;;;11.43;9.75;;;9.40;99.90;;;;;;8293910;28;20096;-90
2022/08/24 02:47:10;;;;;;;11.20;9.20;;;9.50;99.90;;;;;;8288391;28;20117;-88
2022/08/24 02:51:22;;;;;;;9.95;8.73;;;9.60;99.90;;;;;;8283327;28;20065;-90
2022/08/24 02:55:23;;;;;;;12.93;9.63;;;9.70;99.90;;;;;;8281269;28;20481;-91
2022/08/24 02:59:23;;;;;;;12.07;9.57;;;9.70;99.90;;;;;;8285132;28;20033;-91
2022/08/24 03:03:24;;;;;;;11.50;9.98;;;9.70;99.90;;;;;;8286421;28;20030;-91
2022/08/24 03:07:24;;;;;;;12.95;10.75;;;9.70;99.90;;;;;;8279945;28;20014;-91
2022/08/24 03:11:25;;;;;;;12.20;10.07;;;9.70;99.90;;;;;;8280411;28;20037;-90
2022/08/24 03:15:26;;;;;;;11.35;9.38;;;9.60;99.90;;;;;;8281271;28;20038;-91
2022/08/24 03:19:27;;;;;;;9.98;8.98;;;9.50;99.90;;;;;;8294079;28;20018;-90
2022/08/24 03:23:28;;;;;;;11.68;10.00;;;9.40;99.90;;;;;;8285931;28;20080;-90
2022/08/24 03:27:28;;;;;;;14.50;9.80;;;9.40;99.90;;;;;;8284108;28;20047;-90
2022/08/24 03:31:29;;;;;;;11.93;9.88;;;9.40;99.90;;;;;;8280460;28;20030;-91
2022/08/24 03:35:29;;;;;;;14.60;9.93;;;9.40;99.90;;;;;;8279351;28;20026;-91
2022/08/24 03:39:31;;;;;;;11.57;9.52;;;9.40;99.90;;;;;;8272965;28;20032;-91
2022/08/24 03:43:47;;;;;;;10.88;8.93;;;9.40;99.90;;;;;;8283710;28;20046;-91
2022/08/24 03:47:48;;;;;;;13.00;9.32;;;9.40;99.90;;;;;;8287727;28;20683;-90
2022/08/24 03:51:49;;;;;;;14.20;8.77;;;9.40;99.90;;;;;;8277718;28;20081;-91
2022/08/24 03:55:50;;;;;;;11.70;9.18;;;9.30;99.90;;;;;;8286072;28;20028;-91
2022/08/24 03:59:50;;;;;;;11.82;9.20;;;9.10;99.90;;;;;;8281242;28;20030;-90
2022/08/24 04:03:52;;;;;;;13.48;9.48;;;9.20;99.90;;;;;;8270865;28;20045;-91
2022/08/24 04:07:53;;;;;;;11.68;8.77;;;9.10;99.90;;;;;;8278940;28;20034;-90
2022/08/24 04:11:53;;;;;;;11.32;9.70;;;9.00;99.90;;;;;;8281975;28;20712;-90
2022/08/24 04:15:54;;;;;;;10.85;9.50;;;9.00;99.90;;;;;;8286720;28;20499;-90
2022/08/24 04:19:58;;;;;;;11.10;8.88;;;9.20;99.90;;;;;;8282614;28;20026;-90
2022/08/24 04:23:59;;;;;;;13.88;8.88;;;9.20;99.90;;;;;;8287360;28;20029;-89
2022/08/24 04:28:00;;;;;;;11.82;9.73;;;9.10;99.90;;;;;;8288512;28;20040;-91
2022/08/24 04:32:01;;;;;;;10.88;9.48;;;9.20;99.90;;;;;;8279462;28;20038;-89
2022/08/24 04:36:06;;;;;;;11.65;10.15;;;9.20;99.90;;;;;;8273850;28;20424;-89
2022/08/24 04:40:08;;;;;;;11.43;9.63;;;9.30;99.90;;;;;;8275678;28;20026;-90
2022/08/24 04:44:09;;;;;;;11.32;9.25;;;9.50;99.90;;;;;;8279509;28;20468;-88
2022/08/24 04:48:10;;;;;;;12.25;8.93;;;9.40;99.90;;;;;;8279951;28;20033;-90
2022/08/24 04:52:11;;;;;;;11.07;8.77;;;9.40;99.90;;;;;;8285614;28;20052;-90
2022/08/24 04:56:21;;;;;;;8.93;8.02;;;9.40;99.90;;;;;;8281406;28;20017;-90
2022/08/24 05:00:22;;;;;;;11.20;10.02;;;9.40;99.90;;;;;;8286150;28;20034;-91
2022/08/24 05:04:23;;;;;;;11.15;8.80;;;9.40;99.90;;;;;;8283920;28;20556;-91
2022/08/24 05:08:23;;;;;;;13.23;9.27;;;9.40;99.90;;;;;;8272067;28;20022;-90
2022/08/24 05:12:24;;;;;;;12.80;9.85;;;9.60;99.90;;;;;;8276840;28;20014;-90
2022/08/24 05:16:26;;;;;;;11.80;9.65;;;9.60;99.90;;;;;;8274672;28;20113;-90
2022/08/24 05:20:27;;;;;;;15.00;10.25;;;9.70;99.90;;;;;;8286634;28;20053;-89
2022/08/24 05:24:28;;;;;;;13.50;10.57;;;9.80;99.90;;;;;;8290193;28;20029;-90
2022/08/24 05:28:29;;;;;;;11.82;10.63;;;9.90;99.90;;;;;;8274868;28;20712;-90
2022/08/24 05:32:29;;;;;;;12.32;11.02;;;10.10;99.90;;;;;;8288540;28;20030;-89
2022/08/24 05:36:32;;;;;;;15.52;11.23;;;10.30;99.90;;;;;;8277298;28;20029;-89
2022/08/24 05:40:35;;;;;;;10.80;9.57;;;10.60;99.90;;;;;;8285686;28;20029;-90
2022/08/24 05:44:36;;;;;;;11.20;9.73;;;10.90;99.90;;;;;;8271627;28;20600;-90
2022/08/24 05:48:37;;;;;;;10.93;9.68;;;11.20;99.90;;;;;;8276229;28;20037;-90
2022/08/24 05:52:37;;;;;;;10.43;9.32;;;11.50;99.90;;;;;;8273463;28;20488;-91
2022/08/24 05:56:38;;;;;;;10.95;9.52;;;11.60;99.90;;;;;;8279512;28;20033;-90
2022/08/24 06:00:38;;;;;;;9.07;8.18;;;12.00;99.90;;;;;;8275026;28;20098;-91
2022/08/24 06:04:39;;;;;;;8.85;7.57;;;12.30;99.90;;;;;;8276752;28;20488;-91
2022/08/24 06:08:43;;;;;;;8.13;7.32;;;12.70;99.90;;;;;;8279445;28;20476;-90
2022/08/24 06:12:44;;;;;;;7.82;7.13;;;13.40;99.90;;;;;;8288201;28;20141;-90
2022/08/24 06:16:46;;;;;;;9.30;7.10;;;13.40;99.90;;;;;;8288745;28;20026;-89
2022/08/24 06:20:46;;;;;;;7.68;6.97;;;13.70;99.90;;;;;;8268134;28;20033;-90
2022/08/24 06:29:07;;;;;;;7.90;6.35;;;14.50;99.90;;;;;;8282718;28;20070;-90
2022/08/24 06:33:08;;;;;;;7.65;5.95;;;15.00;99.90;;;;;;8287477;28;20081;-90
2022/08/24 06:37:09;;;;;;;9.13;5.35;;;15.60;99.90;;;;;;8267068;28;20026;-91
2022/08/24 06:41:10;;;;;;;5.90;5.30;;;16.30;99.90;;;;;;8258647;28;20029;-91
2022/08/24 06:45:10;;;;;;;5.50;5.00;;;17.30;99.90;;;;;;8293283;28;20052;-91
2022/08/24 06:49:11;;;;;;;5.13;4.72;;;18.10;99.90;;;;;;8295651;28;20030;-91
2022/08/24 06:53:13;;;;;;;5.28;4.30;;;19.00;99.90;;;;;;8274071;28;20542;-91
2022/08/24 06:57:14;;;;;;;4.80;4.30;;;20.00;99.90;;;;;;8270937;28;20472;-91
2022/08/24 07:01:21;;;;;;;4.70;3.95;;;20.40;99.90;;;;;;8270499;28;20030;-91
2022/08/24 07:05:22;;;;;;;4.40;3.97;;;21.10;99.90;;;;;;8283899;28;20042;-92
2022/08/24 07:09:23;;;;;;;4.45;3.80;;;22.00;99.90;;;;;;8291517;28;20022;-92
2022/08/24 07:13:24;;;;;;;5.32;4.10;;;22.30;99.90;;;;;;8268967;28;20019;-92
2022/08/24 07:17:25;;;;;;;4.70;4.25;;;22.40;99.90;;;;;;8257676;28;20519;-92
2022/08/24 07:21:27;;;;;;;5.47;4.57;;;22.50;99.90;;;;;;8265550;28;20026;-92
2022/08/24 07:25:30;;;;;;;6.28;4.93;;;22.70;99.90;;;;;;8275103;28;20492;-91
2022/08/24 07:29:30;;;;;;;6.75;5.05;;;22.70;99.90;;;;;;8274074;28;20034;-92
2022/08/24 07:33:32;;;;;;;6.18;4.57;;;22.50;99.90;;;;;;8271468;28;20062;-92
2022/08/24 07:37:32;;;;;;;5.25;4.80;;;23.40;99.90;;;;;;8277139;28;20503;-92
2022/08/24 07:41:38;;;;;;;6.57;5.57;;;23.70;99.90;;;;;;8292359;28;20037;-92
2022/08/24 07:45:40;;;;;;;6.03;4.72;;;24.10;99.90;;;;;;8282947;28;20033;-92
2022/08/24 07:49:41;;;;;;;5.57;4.40;;;23.80;99.90;;;;;;8289846;28;20028;-91
2022/08/24 07:53:42;;;;;;;5.10;4.60;;;23.90;99.90;;;;;;8293609;28;20026;-92
2022/08/24 07:57:44;;;;;;;8.32;4.90;;;24.00;99.90;;;;;;8286592;28;20026;-91
2022/08/24 08:01:44;;;;;;;6.57;4.93;;;24.30;99.90;;;;;;8285365;28;20053;-91
2022/08/24 08:05:45;;;;;;;4.57;4.18;;;24.20;99.90;;;;;;8284762;28;20033;-92
2022/08/24 08:09:48;;;;;;;5.18;4.50;;;24.80;99.90;;;;;;8296855;28;20092;-93
2022/08/24 08:13:48;;;;;;;4.22;3.78;;;25.40;99.90;;;;;;8294496;28;20056;-92
2022/08/24 08:17:49;;;;;;;5.13;3.53;;;25.40;99.90;;;;;;8293094;28;20026;-92
2022/08/24 08:26:32;;;;;;;6.40;4.03;;;24.80;99.90;;;;;;8279492;28;20117;-92
2022/08/24 08:30:32;;;;;;;4.78;3.40;;;24.70;99.90;;;;;;8280052;28;20041;-92
2022/08/24 08:34:33;;;;;;;3.42;2.90;;;24.80;99.90;;;;;;8281037;28;20033;-91
2022/08/24 08:38:34;;;;;;;3.67;3.28;;;24.80;99.90;;;;;;8289031;28;20030;-91
2022/08/24 08:42:45;;;;;;;4.30;3.40;;;24.90;99.90;;;;;;8285574;28;20090;-92
2022/08/24 08:47:12;;;;;;;3.72;2.85;;;25.10;99.90;;;;;;8280534;28;20026;-93
2022/08/24 08:51:32;;;;;;;4.63;3.10;;;24.90;99.90;;;;;;8286485;28;20022;-92
2022/08/24 08:55:44;;;;;;;4.97;3.60;;;24.90;99.90;;;;;;8283897;28;20026;-93
2022/08/24 08:59:58;;;;;;;4.65;3.33;;;25.10;99.90;;;;;;8275519;28;20038;-92
2022/08/24 09:04:14;;;;;;;6.30;3.63;;;25.50;99.90;;;;;;8284914;28;20110;-92
2022/08/24 09:08:48;;;;;;;3.78;3.35;;;25.60;99.90;;;;;;8267658;28;20523;-92
2022/08/24 09:13:19;;;;;;;4.15;2.53;;;25.70;99.90;;;;;;8240618;28;20033;-91
2022/08/24 09:17:55;;;;;;;3.67;2.67;;;25.80;99.90;;;;;;8274049;28;20059;-91
2022/08/24 09:22:01;;;;;;;2.42;2.22;;;25.70;99.90;;;;;;8288425;28;20037;-92
2022/08/24 09:26:05;;;;;;;2.95;2.10;;;25.60;99.90;;;;;;8292097;28;20026;-92
2022/08/24 09:30:22;;;;;;;3.15;2.30;;;25.90;99.90;;;;;;8278987;28;20033;-92
2022/08/24 09:34:26;;;;;;;4.07;2.70;;;25.80;99.90;;;;;;8308077;28;20072;-92
2022/08/24 09:38:38;;;;;;;4.43;2.55;;;25.10;99.90;;;;;;8297893;28;20125;-92
2022/08/24 09:42:54;;;;;;;3.13;2.78;;;25.20;99.90;;;;;;8297824;28;20546;-92
2022/08/24 09:47:11;;;;;;;3.42;2.60;;;25.10;99.90;;;;;;8295917;28;20487;-92
2022/08/24 09:51:24;;;;;;;3.05;2.45;;;25.10;99.90;;;;;;8302598;28;20531;-92
2022/08/24 09:55:54;;;;;;;2.75;2.40;;;25.30;99.90;;;;;;8294176;28;20109;-91
2022/08/24 10:00:11;;;;;;;6.75;2.50;;;25.40;99.90;;;;;;8305593;28;20568;-92
2022/08/24 10:04:48;;;;;;;3.40;2.60;;;25.30;99.90;;;;;;8302555;28;20017;-92
2022/08/24 10:09:21;;;;;;;2.63;2.20;;;25.60;99.90;;;;;;8310811;28;20387;-91
2022/08/24 10:13:40;;;;;;;3.35;2.50;;;25.60;99.90;;;;;;8322806;28;20021;-91
2022/08/24 10:18:05;;;;;;;2.55;2.35;;;25.90;99.90;;;;;;8304924;28;20018;-91
2022/08/24 10:22:39;;;;;;;2.45;2.25;;;26.10;99.90;;;;;;8313761;28;20084;-91
2022/08/24 10:26:53;;;;;;;4.30;3.10;;;26.00;99.90;;;;;;8319673;28;20057;-91
2022/08/24 10:31:02;;;;;;;2.30;2.10;;;26.30;99.90;;;;;;8297582;28;20030;-92
2022/08/24 10:35:11;;;;;;;2.10;1.90;;;27.10;99.90;;;;;;8287906;28;20036;-91
2022/08/24 10:39:42;;;;;;;2.10;1.90;;;26.50;99.90;;;;;;8283734;28;20033;-91
2022/08/24 10:44:01;;;;;;;1.92;1.73;;;26.90;99.80;;;;;;8287881;28;20045;-91
2022/08/24 10:48:26;;;;;;;3.08;2.10;;;27.20;99.30;;;;;;8293980;28;20037;-91
2022/08/24 10:52:56;;;;;;;2.72;2.30;;;27.10;99.90;;;;;;8288592;28;20022;-91
2022/08/24 10:57:16;;;;;;;2.70;2.15;;;27.10;99.90;;;;;;8289080;28;20030;-91
2022/08/24 11:01:27;;;;;;;2.97;2.10;;;28.40;96.60;;;;;;8292658;28;20064;-92
2022/08/24 11:05:38;;;;;;;2.83;2.15;;;28.90;98.60;;;;;;8289686;28;20026;-92
2022/08/24 11:09:44;;;;;;;2.20;2.00;;;29.70;94.00;;;;;;8294281;28;20503;-93
2022/08/24 11:13:59;;;;;;;2.92;1.90;;;30.10;91.60;;;;;;8285792;28;20023;-92
2022/08/24 11:18:03;;;;;;;2.60;1.50;;;29.20;96.60;;;;;;8283958;28;20018;-91
2022/08/24 11:22:27;;;;;;;1.90;1.80;;;28.70;93.20;;;;;;8302334;28;20670;-92
2022/08/24 11:26:28;;;;;;;2.90;1.83;;;29.60;93.10;;;;;;8299139;28;20018;-93
2022/08/24 11:30:30;;;;;;;3.40;1.98;;;29.40;91.30;;;;;;8290855;28;20080;-92
2022/08/24 11:34:35;;;;;;;2.30;2.10;;;29.20;94.00;;;;;;8297150;28;20038;-92
2022/08/24 11:38:36;;;;;;;2.10;1.90;;;28.00;96.30;;;;;;8300838;28;20026;-92
2022/08/24 11:42:56;;;;;;;2.17;1.80;;;28.60;93.80;;;;;;8305393;28;20120;-92
2022/08/24 11:47:18;;;;;;;2.15;1.90;;;28.80;94.20;;;;;;8319017;28;20035;-91
2022/08/24 11:51:59;;;;;;;2.30;2.10;;;29.70;93.70;;;;;;8322761;28;20025;-91
2022/08/24 11:56:22;;;;;;;2.03;1.83;;;29.00;94.40;;;;;;8304575;28;20080;-92
2022/08/24 12:00:29;;;;;;;2.03;1.83;;;28.30;96.50;;;;;;8293476;28;20113;-91
2022/08/24 12:04:58;;;;;;;1.92;1.67;;;28.80;93.50;;;;;;8300235;28;20022;-91
2022/08/24 12:09:25;;;;;;;2.22;2.03;;;28.90;93.40;;;;;;8297892;28;20038;-91
2022/08/24 12:13:30;;;;;;;2.60;1.70;;;28.40;93.70;;;;;;8302731;28;20041;-92
2022/08/24 12:17:44;;;;;;;2.15;1.80;;;29.60;93.40;;;;;;8312886;28;20405;-92
2022/08/24 12:21:50;;;;;;;2.55;1.80;;;30.90;82.50;;;;;;8312170;28;20109;-92
2022/08/24 12:26:01;;;;;;;2.03;1.80;;;30.80;82.00;;;;;;8312772;28;20638;-91
2022/08/24 12:30:10;;;;;;;3.47;1.73;;;29.30;90.20;;;;;;8306231;28;20502;-93
2022/08/24 12:34:26;;;;;;;;;;;29.60;92.30;;;;;;8271697;28;20046;-90
2022/08/24 12:38:33;;;;;;;2.55;1.98;;;29.20;91.10;;;;;;8295506;28;19906;-92
2022/08/24 12:42:38;;;;;;;2.25;1.80;;;30.30;89.80;;;;;;8292002;28;20034;-91
2022/08/24 12:46:41;;;;;;;1.55;1.35;;;29.80;85.20;;;;;;8299252;28;20033;-92
2022/08/24 12:51:01;;;;;;;2.90;1.70;;;31.40;82.40;;;;;;8284423;28;20037;-91
2022/08/24 12:55:21;;;;;;;2.58;1.83;;;31.70;80.60;;;;;;8294892;28;20461;-91
2022/08/24 12:59:44;;;;;;;2.65;1.90;;;30.20;85.30;;;;;;8296319;28;20097;-91
2022/08/24 13:03:49;;;;;;;5.97;2.20;;;31.20;83.80;;;;;;8292491;28;20030;-92
2022/08/24 13:07:53;;;;;;;4.90;2.08;;;31.20;84.20;;;;;;8296805;28;20027;-91
2022/08/24 13:11:56;;;;;;;2.53;2.10;;;32.20;80.50;;;;;;8293336;28;20122;-91
2022/08/24 13:15:58;;;;;;;2.67;1.98;;;31.70;82.30;;;;;;8294631;28;20022;-92
2022/08/24 13:20:39;;;;;;;2.40;1.92;;;31.10;79.70;;;;;;8289605;28;20400;-92
2022/08/24 13:24:52;;;;;;;2.17;1.88;;;30.50;82.80;;;;;;8274867;28;20065;-92
2022/08/24 13:28:54;;;;;;;2.22;1.80;;;30.80;84.90;;;;;;8273692;28;20057;-92
2022/08/24 13:33:09;;;;;;;2.22;2.03;;;30.20;85.60;;;;;;8305615;28;20036;-93
2022/08/24 13:37:10;;;;;;;2.03;1.90;;;30.60;84.30;;;;;;8308493;28;20025;-93
2022/08/24 13:41:28;;;;;;;2.40;2.05;;;33.00;76.30;;;;;;8313592;28;20507;-91
2022/08/24 13:45:34;;;;;;;3.50;2.10;;;32.30;79.30;;;;;;8331197;28;20022;-91
2022/08/24 13:50:00;;;;;;;3.78;2.05;;;30.90;86.30;;;;;;8305234;28;20048;-91
2022/08/24 13:54:24;;;;;;;1.80;1.70;;;30.90;83.60;;;;;;8317893;28;20026;-90
2022/08/24 13:58:40;;;;;;;2.40;2.20;;;32.20;80.30;;;;;;8304437;28;20049;-92
2022/08/24 14:02:55;;;;;;;3.30;1.83;;;32.60;72.80;;;;;;8325267;28;20026;-93
2022/08/24 14:07:20;;;;;;;5.40;2.28;;;32.40;75.70;;;;;;8313581;28;20037;-92
2022/08/24 14:11:40;;;;;;;2.10;1.90;;;32.00;80.30;;;;;;8305528;28;20480;-93
2022/08/24 14:21:09;;;;;;;3.35;2.30;;;32.40;75.70;;;;;;8329815;28;20095;-92
2022/08/24 14:25:20;;;;;;;2.20;2.00;;;33.60;73.80;;;;;;8328970;28;20026;-91
2022/08/24 14:29:28;;;;;;;2.45;2.00;;;32.20;78.20;;;;;;8322087;28;20578;-91
2022/08/24 14:33:41;;;;;;;2.60;2.20;;;31.10;77.60;;;;;;8312345;28;20025;-92
2022/08/24 14:38:23;;;;;;;2.42;2.20;;;31.30;81.80;;;;;;8306671;28;20026;-91
2022/08/24 14:42:53;;;;;;;4.43;2.28;;;29.60;83.00;;;;;;8317119;28;20071;-92
2022/08/24 14:47:07;;;;;;;2.38;2.10;;;30.30;83.10;;;;;;8333301;28;20032;-92
2022/08/24 14:51:13;;;;;;;2.40;2.20;;;30.20;89.20;;;;;;8307446;28;20026;-93
2022/08/24 14:55:18;;;;;;;2.50;2.30;;;30.00;85.10;;;;;;8306893;28;20529;-93
2022/08/24 14:59:52;;;;;;;2.15;1.92;;;29.20;88.70;;;;;;8317181;28;20021;-92
2022/08/24 15:04:20;;;;;;;2.55;1.92;;;27.90;90.70;;;;;;8312185;28;20032;-93
2022/08/24 15:08:37;;;;;;;5.18;2.45;;;27.20;90.90;;;;;;8319667;28;20453;-93
2022/08/24 15:12:46;;;;;;;2.55;2.35;;;27.60;92.60;;;;;;8323243;28;20458;-91
2022/08/24 15:16:51;;;;;;;4.05;2.15;;;29.90;89.70;;;;;;8311170;28;20029;-91
2022/08/24 15:21:04;;;;;;;4.72;2.10;;;29.70;90.30;;;;;;8312657;28;20381;-90
2022/08/24 15:25:26;;;;;;;2.30;1.98;;;28.80;87.10;;;;;;8300698;28;20037;-91
2022/08/24 15:29:33;;;;;;;4.18;2.10;;;27.40;91.00;;;;;;8302987;28;20466;-91
2022/08/24 15:33:49;;;;;;;2.08;1.90;;;27.50;91.50;;;;;;8305808;28;20033;-91
2022/08/24 15:37:49;;;;;;;2.33;2.13;;;30.20;89.20;;;;;;8310554;28;20025;-92
2022/08/24 15:41:50;;;;;;;2.40;2.03;;;32.70;77.00;;;;;;8321887;28;20022;-92
2022/08/24 15:45:51;;;;;;;2.17;1.85;;;32.00;81.80;;;;;;8303270;28;20060;-91
2022/08/24 15:50:05;;;;;;;2.00;1.70;;;32.10;82.40;;;;;;8316283;28;20032;-92
2022/08/24 15:54:24;;;;;;;2.00;1.85;;;31.90;78.00;;;;;;8310257;28;20030;-91
2022/08/24 15:58:37;;;;;;;2.05;1.80;;;29.50;84.40;;;;;;8314274;28;20018;-92
2022/08/24 16:02:38;;;;;;;2.53;2.08;;;27.70;90.50;;;;;;8309137;28;20034;-94
2022/08/24 16:06:43;;;;;;;2.38;2.17;;;26.90;91.60;;;;;;8306688;28;20058;-93
2022/08/24 16:10:53;;;;;;;3.38;2.10;;;25.80;95.60;;;;;;8312621;28;20097;-92
2022/08/24 16:15:10;;;;;;;3.63;1.90;;;25.00;97.10;;;;;;8315993;28;20487;-91
2022/08/24 16:19:25;;;;;;;3.83;1.90;;;24.80;98.80;;;;;;8305874;28;20029;-90
2022/08/24 16:23:30;;;;;;;2.50;2.10;;;25.00;98.30;;;;;;8316405;28;20032;-91
2022/08/24 16:27:55;;;;;;;2.28;2.05;;;25.20;98.90;;;;;;8317719;28;20121;-91
2022/08/24 16:32:19;;;;;;;2.33;2.13;;;25.10;98.00;;;;;;8300089;28;20543;-92
2022/08/24 16:36:20;;;;;;;2.60;2.05;;;24.90;98.40;;;;;;8312475;28;20142;-92
2022/08/24 16:40:21;;;;;;;2.47;1.92;;;24.90;99.60;;;;;;8302610;28;20027;-91
2022/08/24 16:44:21;;;;;;;2.25;1.92;;;24.60;99.60;;;;;;8303036;28;20105;-91
2022/08/24 16:48:22;;;;;;;2.30;2.10;;;24.60;99.90;;;;;;8302227;28;20588;-91
2022/08/24 16:52:23;;;;;;;3.35;2.03;;;24.30;99.90;;;;;;8308059;28;20026;-92
2022/08/24 16:56:23;;;;;;;2.03;1.80;;;24.10;99.90;;;;;;8312074;28;20033;-91
2022/08/24 17:00:24;;;;;;;2.28;1.98;;;23.80;99.90;;;;;;8306147;28;20060;-93
2022/08/24 17:04:25;;;;;;;2.40;1.92;;;23.60;99.90;;;;;;8293451;28;20136;-93
2022/08/24 17:08:27;;;;;;;2.10;1.90;;;23.40;99.90;;;;;;8299129;28;20621;-93
2022/08/24 17:12:30;;;;;;;2.40;2.20;;;23.20;99.90;;;;;;8300578;28;20381;-92
2022/08/24 17:16:30;;;;;;;2.60;2.40;;;23.20;99.90;;;;;;8298052;28;20018;-92
2022/08/24 17:20:32;;;;;;;2.60;2.40;;;23.00;99.90;;;;;;8306491;28;20041;-92
2022/08/24 17:24:33;;;;;;;3.45;2.45;;;22.80;99.90;;;;;;8300599;28;20534;-93
2022/08/24 17:28:38;;;;;;;5.88;2.72;;;22.60;99.90;;;;;;8288841;28;20057;-93
2022/08/24 17:32:39;;;;;;;2.90;2.60;;;22.20;99.90;;;;;;8312165;28;20041;-94
2022/08/24 17:36:43;;;;;;;3.05;2.30;;;21.90;99.90;;;;;;8304098;28;20025;-93
2022/08/24 17:40:44;;;;;;;2.97;2.22;;;21.70;99.90;;;;;;8308465;28;20053;-93
2022/08/24 17:44:44;;;;;;;2.42;2.20;;;21.30;99.90;;;;;;8324497;28;20057;-93
2022/08/24 17:48:46;;;;;;;3.97;3.00;;;21.20;99.90;;;;;;8317303;28;20110;-92
2022/08/24 17:52:47;;;;;;;4.82;2.30;;;21.00;99.90;;;;;;8295292;28;20113;-93
2022/08/24 17:56:49;;;;;;;2.80;2.60;;;20.60;99.90;;;;;;8298355;28;20033;-92
2022/08/24 18:00:50;;;;;;;3.38;2.90;;;20.50;99.90;;;;;;8320266;28;20065;-91
2022/08/24 18:04:50;;;;;;;2.80;2.53;;;20.20;99.90;;;;;;8307350;28;20053;-91
2022/08/24 18:08:51;;;;;;;3.08;2.30;;;20.10;99.90;;;;;;8311753;28;20040;-91
2022/08/24 18:12:52;;;;;;;5.50;2.42;;;20.00;99.90;;;;;;8307361;28;20033;-92
2022/08/24 18:16:55;;;;;;;3.72;2.80;;;19.90;99.90;;;;;;8302313;28;20026;-92
2022/08/24 18:20:55;;;;;;;3.35;2.45;;;19.70;99.90;;;;;;8315118;28;20258;-91
2022/08/24 18:24:56;;;;;;;2.78;2.50;;;19.50;99.90;;;;;;8307539;28;20034;-91
2022/08/24 18:29:01;;;;;;;3.20;2.90;;;19.40;99.90;;;;;;8312109;28;20256;-91
2022/08/24 18:33:03;;;;;;;4.18;2.50;;;19.20;99.90;;;;;;8299052;28;20033;-91
2022/08/24 18:37:04;;;;;;;4.95;2.75;;;19.20;99.90;;;;;;8292258;28;20023;-91
2022/08/24 18:41:05;;;;;;;2.92;2.58;;;19.20;99.90;;;;;;8295557;28;20034;-91
2022/08/24 18:45:07;;;;;;;2.92;2.53;;;18.90;99.90;;;;;;8297256;28;20038;-92
2022/08/24 18:49:08;;;;;;;3.13;2.83;;;18.80;99.90;;;;;;8299972;28;20022;-91
2022/08/24 18:53:12;;;;;;;4.38;3.42;;;18.40;99.90;;;;;;8300918;28;20041;-92
2022/08/24 18:57:13;;;;;;;3.03;2.70;;;18.30;99.90;;;;;;8291615;28;20022;-91
2022/08/24 19:01:13;;;;;;;3.70;3.00;;;18.00;99.90;;;;;;8287442;28;20022;-91
2022/08/24 19:05:19;;;;;;;3.58;3.05;;;17.90;99.90;;;;;;8286749;28;20026;-91
2022/08/24 19:09:20;;;;;;;5.45;3.03;;;17.70;99.90;;;;;;8274861;28;20018;-91
2022/08/24 19:13:21;;;;;;;3.53;3.22;;;17.70;99.90;;;;;;8273537;28;20019;-91
2022/08/24 19:17:21;;;;;;;3.33;3.03;;;17.60;99.90;;;;;;8282360;28;20022;-91
2022/08/24 19:21:30;;;;;;;3.38;2.97;;;17.50;99.90;;;;;;8290742;28;20026;-91
2022/08/24 19:25:31;;;;;;;4.35;3.47;;;17.40;99.90;;;;;;8277761;28;20037;-92
2022/08/24 19:29:32;;;;;;;19.33;3.45;;;17.30;99.90;;;;;;8281121;28;20030;-92
2022/08/24 19:33:37;;;;;;;7.70;3.72;;;17.10;99.90;;;;;;8279521;28;20025;-92
2022/08/24 19:37:37;;;;;;;3.97;3.47;;;17.00;99.90;;;;;;8276146;28;20041;-92
2022/08/24 19:41:43;;;;;;;4.35;3.70;;;16.90;99.90;;;;;;8284466;28;20409;-92
2022/08/24 19:46:01;;;;;;;7.68;4.03;;;16.90;99.90;;;;;;8282152;28;20026;-91
2022/08/24 19:50:06;;;;;;;5.20;3.88;;;16.60;99.90;;;;;;8275158;28;20026;-90
2022/08/24 19:54:07;;;;;;;5.88;4.40;;;16.40;99.90;;;;;;8286091;28;20032;-91
2022/08/24 19:58:29;;;;;;;7.20;4.22;;;16.40;99.90;;;;;;8275304;28;20396;-91
2022/08/24 20:02:30;;;;;;;4.80;4.22;;;16.50;99.90;;;;;;8280235;28;20018;-91
2022/08/24 20:06:33;;;;;;;4.93;4.10;;;16.40;99.90;;;;;;8286439;28;20023;-91
2022/08/24 20:10:34;;;;;;;5.57;3.50;;;16.40;99.90;;;;;;8296962;28;20281;-91
2022/08/24 20:14:35;;;;;;;6.65;3.85;;;16.30;99.90;;;;;;8287855;28;20026;-90
2022/08/24 20:18:36;;;;;;;5.53;4.47;;;16.20;99.90;;;;;;8283463;28;20514;-92
2022/08/24 20:22:37;;;;;;;5.55;4.95;;;16.10;99.90;;;;;;8287302;28;20022;-91
2022/08/24 20:26:42;;;;;;;8.15;4.97;;;16.00;99.90;;;;;;8291897;28;20026;-91
2022/08/24 20:30:43;;;;;;;4.85;4.35;;;15.90;99.90;;;;;;8280163;28;20372;-91
2022/08/24 20:34:44;;;;;;;5.85;4.03;;;16.10;99.90;;;;;;8284357;28;20033;-91
2022/08/24 20:38:44;;;;;;;5.65;4.30;;;15.80;99.90;;;;;;8304415;28;20045;-92
2022/08/24 20:42:46;;;;;;;5.80;4.60;;;15.80;99.90;;;;;;8296098;28;20030;-92
2022/08/24 20:46:47;;;;;;;6.20;4.43;;;16.00;99.90;;;;;;8288053;28;20030;-92
2022/08/24 20:50:48;;;;;;;4.78;4.10;;;15.90;99.90;;;;;;8283052;28;20471;-92
2022/08/24 20:54:49;;;;;;;5.60;4.63;;;15.60;99.90;;;;;;8282988;28;20042;-92
2022/08/24 20:58:49;;;;;;;4.72;4.30;;;15.60;99.90;;;;;;8280268;28;20015;-92
2022/08/24 21:02:51;;;;;;;6.40;4.10;;;15.60;99.90;;;;;;8280949;28;20026;-92
2022/08/24 21:06:51;;;;;;;5.38;4.40;;;15.70;99.90;;;;;;8292910;28;20037;-92
2022/08/24 21:10:53;;;;;;;4.75;4.25;;;15.50;99.90;;;;;;8280133;28;20053;-92
2022/08/24 21:14:53;;;;;;;7.72;4.47;;;15.40;99.90;;;;;;8287161;28;20053;-91
2022/08/24 21:18:54;;;;;;;4.68;4.20;;;15.20;99.90;;;;;;8291479;28;20021;-91
2022/08/24 21:22:54;;;;;;;5.43;4.65;;;15.20;99.90;;;;;;8277221;28;20031;-92
2022/08/24 21:26:57;;;;;;;5.55;4.80;;;15.10;99.90;;;;;;8282963;28;20081;-91
2022/08/24 21:30:57;;;;;;;7.70;5.63;;;15.00;99.90;;;;;;8283420;28;20265;-91
2022/08/24 21:34:58;;;;;;;7.85;5.15;;;15.00;99.90;;;;;;8307845;28;20084;-91
2022/08/24 21:38:59;;;;;;;8.02;5.70;;;15.10;99.90;;;;;;8296051;28;20022;-91